Latest Weather Observations for Nuriootpa

IDS60801

Issued at 11:05 pm CST Wednesday 23 July 2014 (issued every 30 minutes, with the page automatically refreshed every 10 minutes)

About weather observations | Map of weather stations | Latest weather observations for SA | Other Formats
Station Details ID: 023373 Name: NURIOOTPA VITICULTURAL Lat: -34.48 Lon: 139.01 Height: 275.0 m
Data from the previous 72 hours. | See also: Recent months at Nuriootpa
Date/Time
CST
Temp
°C
App
Temp
°C
Dew
Point
Rel
Hum
%
Delta-T
°C
Wind Press
QNH
hPa
Press
MSL
hPa
Rain
since 9 am
mm
Dir
 
Spd
km/h
Gust
km/h
Spd
kts
Gust
kts
23/11:00pm 9.0 5.2 5.8 80 1.5 E 15 24 8 13 1009.8 - 7.0
23/10:30pm 8.7 4.9 5.9 82 1.3 E 15 22 8 12 1010.8 1011.1 7.0
23/10:00pm 8.7 5.0 6.1 84 1.2 ENE 15 22 8 12 1011.5 - 7.0
23/09:30pm 8.4 4.7 6.5 88 0.9 ENE 15 24 8 13 1011.9 1012.2 7.0
23/09:00pm 8.4 4.7 6.5 88 0.9 ENE 15 20 8 11 1012.8 1013.2 6.8
23/08:30pm 8.5 5.2 6.4 87 1.0 ENE 13 15 7 8 1013.1 1013.5 6.4
23/08:00pm 8.3 5.1 6.8 90 0.7 NNE 13 24 7 13 1013.3 - 5.4
23/07:30pm 8.3 5.9 6.8 90 0.7 ENE 9 13 5 7 1013.1 1013.5 4.0
23/07:00pm 8.8 5.5 6.2 84 1.2 ENE 13 17 7 9 1012.9 - 2.8
23/06:30pm 9.1 5.3 5.9 80 1.5 ENE 15 22 8 12 1012.8 1013.2 1.6
23/06:00pm 9.1 5.6 5.6 79 1.6 ENE 13 19 7 10 1012.8 1013.2 1.4
23/05:30pm 9.8 5.7 4.2 68 2.5 ENE 15 20 8 11 1012.7 1013.0 1.0
23/05:00pm 9.8 5.4 4.5 69 2.4 ENE 17 24 9 13 1012.6 - 1.0
23/04:30pm 9.8 5.4 5.0 72 2.2 ENE 17 24 9 13 1012.6 1012.9 1.0
23/04:00pm 10.0 6.1 5.2 72 2.2 ENE 15 24 8 13 1012.5 - 1.0
23/03:30pm 9.9 5.6 5.4 73 2.1 NE 17 22 9 12 1012.9 1013.3 1.0
23/03:00pm 9.9 5.2 5.1 72 2.2 NE 19 28 10 15 1013.1 1013.5 1.0
23/02:30pm 9.5 4.9 5.4 75 1.9 NE 19 28 10 15 1013.3 1013.7 1.0
23/02:00pm 9.2 4.5 6.0 80 1.5 ENE 20 26 11 14 1013.6 - 1.0
23/01:30pm 9.4 6.6 6.9 84 1.2 ENE 11 15 6 8 1014.9 1015.2 0.8
23/01:00pm 9.6 5.7 5.5 75 1.9 ENE 15 20 8 11 1015.6 - 0.4
23/12:30pm 10.6 6.0 3.9 63 3.0 NE 17 22 9 12 1016.2 1016.6 0.0
23/12:00pm 11.8 7.1 3.0 55 3.9 NNE 17 30 9 16 1016.9 1017.3 0.0
23/11:30am 11.7 8.4 4.8 62 3.2 NE 11 17 6 9 1017.7 1018.1 0.0
23/11:00am 10.5 7.1 3.8 63 3.0 ENE 11 13 6 7 1018.3 - 0.0
23/10:30am 9.6 6.0 2.7 62 3.0 ENE 11 15 6 8 1018.5 1018.8 0.0
23/10:00am 9.1 5.0 2.3 62 2.9 ENE 13 19 7 10 1018.8 - 0.0
23/09:30am 8.0 3.9 2.0 66 2.5 NE 13 22 7 12 1018.9 1019.3 0.0
23/09:00am 8.2 3.7 2.0 65 2.6 NE 15 20 8 11 1018.8 1019.1 1.0
23/08:30am 7.5 2.8 1.1 64 2.6 NE 15 20 8 11 1018.8 1019.1 1.0
23/08:00am 6.5 2.2 0.8 67 2.3 ENE 13 19 7 10 1018.8 - 1.0
23/07:30am 6.5 2.2 0.8 67 2.3 NE 13 19 7 10 1019.0 1019.4 1.0
23/07:00am 6.7 2.0 0.7 65 2.4 NE 15 22 8 12 1019.1 - 1.0
23/06:30am 6.8 2.1 0.8 65 2.4 NE 15 20 8 11 1018.7 1019.0 1.0
23/06:00am 7.2 2.1 0.8 64 2.6 ENE 17 24 9 13 1018.6 1018.9 1.0
23/05:30am 7.7 3.0 0.8 61 2.8 NE 15 20 8 11 1018.6 1018.9 1.0
23/05:00am 8.1 3.4 0.7 59 3.0 NE 15 19 8 10 1018.8 - 1.0
23/04:30am 8.0 3.3 0.9 61 2.9 NE 15 20 8 11 1018.9 1019.3 1.0
23/04:00am 8.1 3.8 1.0 61 2.9 NE 13 19 7 10 1019.3 - 1.0
23/03:30am 8.4 3.7 0.8 59 3.1 NE 15 19 8 10 1019.6 1020.0 1.0
23/03:00am 8.7 3.6 0.9 58 3.2 NE 17 22 9 12 1019.8 1020.2 1.0
23/02:30am 9.0 4.3 0.7 56 3.4 ENE 15 20 8 11 1020.1 1020.5 1.0
23/02:00am 8.5 4.2 1.2 60 3.0 ENE 13 17 7 9 1020.6 - 1.0
23/01:30am 8.7 4.0 1.2 59 3.1 ENE 15 20 8 11 1020.6 1021.0 1.0
23/01:00am 8.6 3.9 1.1 59 3.1 NE 15 20 8 11 1020.5 - 1.0
23/12:30am 8.7 4.0 1.2 59 3.1 ENE 15 20 8 11 1020.9 1021.3 1.0
23/12:00am 8.4 3.8 1.4 61 2.9 ENE 15 19 8 10 1021.4 1021.8 1.0
 
Date/Time
CST
Temp
°C
App
Temp
°C
Dew
Point
Rel
Hum
%
Delta-T
°C
Wind Press
QNH
hPa
Press
MSL
hPa
Rain
since 9 am
mm
Dir
 
Spd
km/h
Gust
km/h
Spd
kts
Gust
kts
22/11:30pm 7.6 3.5 2.1 68 2.3 NE 13 15 7 8 1021.7 1022.1 1.0
22/11:00pm 8.1 4.0 2.2 66 2.5 NE 13 20 7 11 1021.7 - 1.0
22/10:30pm 8.9 4.7 1.7 60 3.0 NE 13 20 7 11 1021.7 1022.1 1.0
22/10:00pm 9.3 5.2 2.0 60 3.1 ENE 13 19 7 10 1021.6 - 1.0
22/09:30pm 10.4 6.2 1.4 53 3.8 ENE 13 19 7 10 1021.6 1022.0 1.0
22/09:00pm 10.2 6.4 2.0 57 3.5 ENE 11 15 6 8 1022.0 1022.4 1.0
22/08:30pm 10.0 6.2 1.5 55 3.6 ENE 11 17 6 9 1021.6 1022.0 1.0
22/08:00pm 9.0 5.6 1.9 61 3.0 NE 9 13 5 7 1021.6 - 1.0
22/07:30pm 8.9 5.6 2.3 63 2.8 NE 9 13 5 7 1021.9 1022.2 1.0
22/07:00pm 9.1 5.8 2.6 64 2.8 ENE 9 13 5 7 1021.9 - 1.0
22/06:30pm 9.3 6.2 3.4 66 2.6 ENE 9 11 5 6 1021.7 1022.1 1.0
22/06:00pm 10.5 7.5 4.0 64 2.9 NE 9 13 5 7 1021.7 1022.1 1.0
22/05:30pm 11.7 8.7 4.2 60 3.4 NE 9 11 5 6 1021.9 1022.2 1.0
22/05:00pm 13.5 10.4 3.4 50 4.6 NE 9 13 5 7 1021.4 - 1.0
22/04:30pm 14.4 10.3 2.3 44 5.4 NE 13 20 7 11 1021.3 1021.7 1.0
22/04:00pm 14.9 10.5 2.5 43 5.6 NE 15 19 8 10 1021.3 - 1.0
22/03:30pm 15.3 11.0 3.1 44 5.6 NNE 15 20 8 11 1021.3 1021.7 1.0
22/03:00pm 15.4 11.1 3.2 44 5.6 NNE 15 22 8 12 1021.5 1021.9 1.0
22/02:30pm 15.7 11.0 3.1 43 5.8 NNE 17 24 9 13 1021.5 1021.9 1.0
22/02:00pm 15.7 10.9 2.5 41 6.0 NNE 17 22 9 12 1021.6 - 1.0
22/01:30pm 15.3 10.3 1.5 39 6.1 NE 17 24 9 13 1021.9 1022.2 1.0
22/01:00pm 15.5 10.2 2.1 40 6.0 NE 19 26 10 14 1022.3 - 1.0
22/12:30pm 15.0 10.2 2.6 43 5.6 NE 17 22 9 12 1022.8 1023.2 1.0
22/12:00pm 14.2 9.8 2.6 45 5.2 ENE 15 20 8 11 1023.3 1023.7 1.0
22/11:30am 13.6 9.4 3.8 51 4.5 NE 15 20 8 11 1023.6 1024.0 1.0
22/11:00am 12.8 8.5 3.2 52 4.3 NE 15 20 8 11 1024.1 - 1.0
22/10:30am 12.0 7.8 3.8 57 3.7 NE 15 19 8 10 1024.4 1024.8 1.0
22/10:00am 11.6 7.4 3.6 58 3.6 NNE 15 20 8 11 1024.7 - 1.0
22/09:30am 10.9 7.9 4.3 64 3.0 NNE 9 13 5 7 1024.5 1024.9 1.0
22/09:00am 8.9 6.3 4.2 72 2.1 NE 7 11 4 6 1024.3 1024.7 0.0
22/08:30am 6.1 3.6 3.5 83 1.1 ENE 6 6 3 3 1024.1 1024.5 0.0
22/08:00am 3.5 0.0 1.5 87 0.8 ENE 9 9 5 5 1023.9 - 0.0
22/07:30am 1.1 -2.5 0.6 96 0.2 NE 9 9 5 5 1024.0 1024.4 0.0
22/07:00am 1.0 -2.0 0.5 96 0.2 NE 6 7 3 4 1023.6 - 0.0
22/06:30am 0.9 -2.4 0.4 96 0.2 ENE 7 9 4 5 1023.3 1023.7 0.0
22/06:00am 1.0 -2.3 0.2 94 0.3 ENE 7 9 4 5 1023.1 1023.5 0.0
22/05:30am 1.2 -2.0 0.7 96 0.2 ENE 7 7 4 4 1023.0 1023.4 0.0
22/05:00am 2.0 -1.2 1.0 93 0.4 ENE 7 9 4 5 1022.9 - 0.0
22/04:30am 1.5 -2.0 1.0 96 0.2 ENE 9 9 5 5 1023.0 1023.4 0.0
22/04:00am 2.1 -1.0 1.6 96 0.2 NE 7 7 4 4 1022.8 - 0.0
22/03:30am 2.3 0.5 1.5 94 0.3 CALM 0 0 0 0 1022.8 1023.2 0.0
22/03:00am 1.9 0.2 1.6 98 0.1 CALM 0 0 0 0 1022.8 1023.2 0.0
22/02:30am 1.8 0.0 1.5 98 0.1 CALM 0 0 0 0 1022.8 1023.2 0.0
22/02:00am 2.3 0.6 2.0 98 0.1 CALM 0 0 0 0 1023.0 - 0.0
22/01:30am 2.3 0.7 2.3 100 0.0 CALM 0 0 0 0 1023.0 1023.4 0.0
22/01:00am 2.3 0.6 1.8 96 0.2 CALM 0 0 0 0 1023.0 - 0.0
22/12:30am 2.7 1.1 2.2 96 0.2 CALM 0 0 0 0 1023.1 1023.5 0.0
22/12:00am 3.1 1.5 2.6 96 0.2 CALM 0 0 0 0 1023.2 1023.6 0.0
 
Date/Time
CST
Temp
°C
App
Temp
°C
Dew
Point
Rel
Hum
%
Delta-T
°C
Wind Press
QNH
hPa
Press
MSL
hPa
Rain
since 9 am
mm
Dir
 
Spd
km/h
Gust
km/h
Spd
kts
Gust
kts
21/11:30pm 3.4 1.9 2.9 97 0.2 CALM 0 0 0 0 1023.2 1023.6 0.0
21/11:00pm 3.9 2.4 3.2 95 0.3 CALM 0 0 0 0 1023.2 - 0.0
21/10:30pm 5.0 3.7 4.3 95 0.3 CALM 0 0 0 0 1023.1 1023.5 0.0
21/10:00pm 4.7 3.4 4.0 95 0.3 CALM 0 0 0 0 1023.2 - 0.0
21/09:30pm 5.4 4.2 4.7 95 0.3 CALM 0 0 0 0 1023.1 1023.5 0.0
21/09:00pm 5.8 4.2 4.7 93 0.5 E 2 6 1 3 1023.0 1023.4 0.0
21/08:30pm 7.2 5.7 5.0 86 1.0 E 2 6 1 3 1022.8 1023.2 0.0
21/08:00pm 6.8 4.6 5.2 89 0.7 ESE 6 7 3 4 1022.5 - 0.0
21/07:30pm 7.7 6.3 5.7 87 0.9 SSE 2 7 1 4 1022.5 1022.9 0.0
21/07:00pm 8.4 7.6 6.7 89 0.8 CALM 0 0 0 0 1022.4 - 0.0
21/06:30pm 8.9 8.2 7.0 88 0.9 CALM 0 0 0 0 1022.2 1022.6 0.0
21/06:00pm 10.6 9.6 7.3 80 1.6 NE 2 6 1 3 1021.9 1022.2 0.0
21/05:30pm 11.4 9.6 7.1 75 2.1 E 6 13 3 7 1021.6 1022.0 0.0
21/05:00pm 11.8 9.7 5.6 66 2.9 E 6 9 3 5 1021.2 - 0.0
21/04:30pm 12.8 10.6 5.1 59 3.6 SSW 6 7 3 4 1021.0 1021.4 0.0
21/04:00pm 13.4 10.7 2.9 49 4.7 W 6 9 3 5 1021.0 - 0.0
21/03:30pm 13.5 10.7 3.1 49 4.7 WSW 7 11 4 6 1020.9 1021.3 0.0
21/03:00pm 13.5 10.5 1.9 45 5.1 WSW 7 11 4 6 1020.8 1021.2 0.0
21/02:30pm 13.7 10.1 0.9 41 5.5 SW 9 11 5 6 1020.8 1021.2 0.0
21/02:00pm 14.0 10.1 1.1 41 5.6 WNW 11 17 6 9 1020.9 - 0.0
21/01:30pm 13.8 10.4 1.7 44 5.3 NNW 9 15 5 8 1021.1 1021.5 0.0
21/01:00pm 13.5 10.7 3.1 49 4.7 N 7 11 4 6 1021.5 - 0.0
21/12:30pm 13.6 11.1 3.8 51 4.5 N 6 11 3 6 1021.9 1022.2 0.0
21/12:00pm 11.9 8.4 3.7 57 3.7 N 11 15 6 8 1022.5 1022.9 0.0
21/11:30am 12.3 7.4 2.3 50 4.4 N 17 22 9 12 1023.0 1023.4 0.0
21/11:00am 11.2 9.0 6.1 71 2.4 NE 7 11 4 6 1023.0 - 0.0
21/10:30am 9.7 6.1 5.1 73 2.1 ENE 13 19 7 10 1023.1 1023.5 0.0
21/10:00am 8.1 4.8 4.5 78 1.6 ENE 11 15 6 8 1023.3 - 0.0
21/09:30am 7.6 3.8 3.9 77 1.6 ENE 13 17 7 9 1023.3 1023.7 0.0
21/09:00am 7.4 4.0 4.0 79 1.5 ENE 11 13 6 7 1023.3 1023.7 0.0
21/08:30am 6.8 3.4 4.0 82 1.2 NE 11 15 6 8 1023.0 1023.4 0.0
21/08:00am 6.7 4.0 3.7 81 1.3 ENE 7 13 4 7 1023.0 - 0.0
21/07:30am 6.5 3.4 3.7 82 1.2 ENE 9 13 5 7 1022.9 1023.3 0.0
21/07:00am 6.1 3.0 3.8 85 1.0 E 9 11 5 6 1022.9 - 0.0
21/06:30am 5.9 3.4 4.0 88 0.8 E 6 9 3 5 1022.7 1023.1 0.0
21/06:00am 6.2 3.5 3.9 85 1.0 ENE 7 9 4 5 1022.6 1023.0 0.0
21/05:30am 6.2 3.1 3.6 83 1.1 ENE 9 11 5 6 1022.5 1022.9 0.0
21/05:00am 6.2 2.8 3.9 85 1.0 ENE 11 13 6 7 1022.6 - 0.0
21/04:30am 6.1 2.7 3.8 85 1.0 ENE 11 13 6 7 1022.7 1023.1 0.0
21/04:00am 5.8 3.1 3.9 88 0.8 ENE 7 11 4 6 1022.7 - 0.0
21/03:30am 6.2 2.4 3.9 85 1.0 ENE 13 17 7 9 1022.4 1022.8 0.0
21/03:00am 6.5 3.1 4.0 84 1.1 NE 11 15 6 8 1022.6 1023.0 0.0
21/02:30am 6.7 2.9 3.9 82 1.2 ENE 13 19 7 10 1022.5 1022.9 0.0
21/02:00am 6.8 2.6 4.0 82 1.2 ENE 15 20 8 11 1022.6 - 0.0
21/01:30am 6.4 2.6 4.1 85 1.0 ENE 13 19 7 10 1022.8 1023.2 0.0
21/01:00am 6.9 2.7 3.9 81 1.3 ENE 15 20 8 11 1023.0 - 0.0
21/12:30am 7.1 3.0 4.1 81 1.3 ENE 15 20 8 11 1023.3 1023.7 0.0
21/12:00am 6.8 3.0 3.8 81 1.3 ENE 13 19 7 10 1023.6 1024.0 0.0
 
Date/Time
CST
Temp
°C
App
Temp
°C
Dew
Point
Rel
Hum
%
Delta-T
°C
Wind Press
QNH
hPa
Press
MSL
hPa
Rain
since 9 am
mm
Dir
 
Spd
km/h
Gust
km/h
Spd
kts
Gust
kts
20/11:30pm 7.0 2.8 4.0 81 1.3 ENE 15 19 8 10 1023.7 1024.1 0.0

Other Formats:

Comma delimited format used in spreadsheet applications
http://www.bom.gov.au/fwo/IDS60801/IDS60801.94681.axf

JavaScript Object Notation format (JSON) in row-major order
http://www.bom.gov.au/fwo/IDS60801/IDS60801.94681.json